createdAt,value
2023-05-21T00:01:36.079Z,101597.63
2023-05-21T00:04:08.460Z,101603.81
2023-05-21T00:06:40.466Z,101600.25
2023-05-21T00:09:13.067Z,101602.88
2023-05-21T00:11:45.048Z,101593.88
2023-05-21T00:14:17.400Z,101590.28
2023-05-21T00:16:49.426Z,101584.94
2023-05-21T00:19:21.612Z,101586.66
2023-05-21T00:21:54.829Z,101579.38
2023-05-21T00:24:26.722Z,101586.50
2023-05-21T00:26:58.733Z,101583.84
2023-05-21T00:29:30.982Z,101583.78
2023-05-21T00:32:03.174Z,101551.50
2023-05-21T00:34:35.196Z,101576.63
2023-05-21T00:37:10.030Z,101578.31
2023-05-21T00:39:42.453Z,101576.47
2023-05-21T00:42:18.241Z,101581.75
2023-05-21T00:44:50.168Z,101580.72
2023-05-21T00:47:22.487Z,101572.69
2023-05-21T00:49:55.231Z,101575.34
2023-05-21T00:52:27.541Z,101575.28
2023-05-21T00:54:59.547Z,101578.78
2023-05-21T00:57:33.393Z,101564.38
2023-05-21T01:00:08.864Z,101571.47
2023-05-21T01:02:41.240Z,101572.38
2023-05-21T01:05:15.458Z,101567.91
2023-05-21T01:07:48.434Z,101575.88
2023-05-21T01:10:20.578Z,101574.94
2023-05-21T01:12:57.482Z,101573.09
2023-05-21T01:15:29.910Z,101562.44
2023-05-21T01:18:02.246Z,101571.28
2023-05-21T01:20:34.755Z,101560.50
2023-05-21T01:23:06.978Z,101562.31
2023-05-21T01:25:39.060Z,101552.38
2023-05-21T01:28:11.243Z,101571.97
2023-05-21T01:30:44.321Z,101570.03
2023-05-21T01:33:47.619Z,101563.75
2023-05-21T01:36:28.471Z,101562.91
2023-05-21T01:39:12.249Z,101564.66
2023-05-21T01:41:46.681Z,101560.22
2023-05-21T01:44:19.974Z,101563.69
2023-05-21T01:46:54.641Z,101569.84
2023-05-21T01:49:26.978Z,101560.84
2023-05-21T01:51:59.054Z,101562.72
2023-05-21T01:54:31.103Z,101556.47
2023-05-21T01:57:03.885Z,101556.47
2023-05-21T01:59:36.516Z,101557.28
2023-05-21T02:02:08.701Z,101560.00
2023-05-21T02:04:44.258Z,101552.03
2023-05-21T02:07:16.230Z,101554.75
2023-05-21T02:09:48.225Z,101551.16
2023-05-21T02:12:20.280Z,101545.84
2023-05-21T02:14:52.196Z,101544.88
2023-05-21T02:17:24.600Z,101552.81
2023-05-21T02:19:57.084Z,101554.50
2023-05-21T02:22:29.068Z,101542.16
2023-05-21T02:25:01.164Z,101549.22
2023-05-21T02:27:35.188Z,101518.81
2023-05-21T02:30:10.974Z,101548.31
2023-05-21T02:32:43.791Z,101544.75
2023-05-21T02:35:15.952Z,101550.97
2023-05-21T02:37:49.001Z,101542.16
2023-05-21T02:40:20.981Z,101553.63
2023-05-21T02:42:52.989Z,101544.81
2023-05-21T02:45:25.043Z,101540.41
2023-05-21T02:47:57.063Z,101547.50
2023-05-21T02:50:29.136Z,101539.56
2023-05-21T02:53:01.212Z,101535.88
2023-05-21T02:55:33.330Z,101542.22
2023-05-21T02:58:05.445Z,101531.53
2023-05-21T03:00:37.469Z,101528.81
2023-05-21T03:03:09.877Z,101537.63
2023-05-21T03:05:41.947Z,101532.31
2023-05-21T03:08:13.868Z,101527.00
2023-05-21T03:10:45.849Z,101522.53
2023-05-21T03:13:17.886Z,101526.06
2023-05-21T03:15:49.934Z,101515.50
2023-05-21T03:18:22.996Z,101519.00
2023-05-21T03:20:55.022Z,101513.63
2023-05-21T03:23:27.009Z,101519.78
2023-05-21T03:25:59.003Z,101509.03
2023-05-21T03:28:31.981Z,101518.03
2023-05-21T03:31:04.150Z,101518.03
2023-05-21T03:33:36.122Z,101510.00
2023-05-21T03:36:08.632Z,101510.88
2023-05-21T03:38:40.689Z,101516.09
2023-05-21T03:41:13.290Z,101523.25
2023-05-21T03:43:45.687Z,101515.31
2023-05-21T03:46:17.760Z,101515.00
2023-05-21T03:48:50.119Z,101515.38
2023-05-21T03:51:22.863Z,101512.66
2023-05-21T03:53:54.881Z,101525.94
2023-05-21T03:56:26.940Z,101519.72
2023-05-21T03:58:58.893Z,101517.06
2023-05-21T04:01:32.929Z,101512.66
2023-05-21T04:04:05.794Z,101515.25
2023-05-21T04:06:38.325Z,101514.34
2023-05-21T04:09:10.374Z,101520.50
2023-05-21T04:11:42.342Z,101525.84
2023-05-21T04:14:14.524Z,101523.16
2023-05-21T04:16:49.176Z,101522.28
2023-05-21T04:19:21.343Z,101524.91
2023-05-21T04:21:53.372Z,101522.25
2023-05-21T04:24:25.595Z,101515.97
2023-05-21T04:27:01.263Z,101522.25
2023-05-21T04:29:33.268Z,101522.22
2023-05-21T04:32:06.215Z,101535.50
2023-05-21T04:34:39.703Z,101527.53
2023-05-21T04:37:12.092Z,101529.34
2023-05-21T04:39:44.814Z,101538.22
2023-05-21T04:42:16.937Z,101536.47
2023-05-21T04:44:48.981Z,101531.94
2023-05-21T04:47:21.195Z,101534.66
2023-05-21T04:49:53.603Z,101539.97
2023-05-21T04:52:26.904Z,101541.84
2023-05-21T04:54:58.861Z,101548.06
2023-05-21T04:57:30.854Z,101524.00
2023-05-21T05:00:04.148Z,101541.84
2023-05-21T05:02:36.092Z,101532.91
2023-05-21T05:05:08.775Z,101528.47
2023-05-21T05:07:40.881Z,101544.63
2023-05-21T05:10:12.827Z,101538.47
2023-05-21T05:12:44.785Z,101501.00
2023-05-21T05:15:17.004Z,101532.38
2023-05-21T05:17:50.591Z,101533.22
2023-05-21T05:20:22.637Z,101527.09
2023-05-21T05:22:54.561Z,101531.59
2023-05-21T05:25:27.328Z,101528.06
2023-05-21T05:27:59.264Z,101523.63
2023-05-21T05:30:31.286Z,101528.16
2023-05-21T05:33:03.276Z,101515.88
2023-05-21T05:35:35.479Z,101520.38
2023-05-21T05:38:08.953Z,101524.00
2023-05-21T05:40:41.002Z,101530.28
2023-05-21T05:43:12.992Z,101536.59
2023-05-21T05:45:44.962Z,101527.81
2023-05-21T05:48:16.922Z,101536.78
2023-05-21T05:50:49.072Z,101538.59
2023-05-21T05:53:21.568Z,101534.13
2023-05-21T05:55:53.817Z,101528.94
2023-05-21T05:58:26.092Z,101529.00
2023-05-21T06:00:58.177Z,101532.66
2023-05-21T06:03:31.080Z,101530.06
2023-05-21T06:06:03.310Z,101525.75
2023-05-21T06:08:38.072Z,101540.09
2023-05-21T06:11:11.414Z,101536.69
2023-05-21T06:13:43.597Z,101532.34
2023-05-21T06:16:16.014Z,101527.94
2023-05-21T06:18:48.161Z,101494.63
2023-05-21T06:21:20.135Z,101521.72
2023-05-21T06:23:52.245Z,101535.16
2023-05-21T06:26:24.236Z,101521.03
2023-05-21T06:28:56.659Z,101527.28
2023-05-21T06:31:28.796Z,101525.66
2023-05-21T06:34:01.412Z,101530.22
2023-05-21T06:36:33.608Z,101494.56
2023-05-21T06:39:05.625Z,101533.09
2023-05-21T06:41:37.576Z,101525.28
2023-05-21T06:44:10.042Z,101523.66
2023-05-21T06:46:42.818Z,101526.44
2023-05-21T06:49:15.083Z,101522.03
2023-05-21T06:51:47.294Z,101525.72
2023-05-21T06:54:19.255Z,101528.47
2023-05-21T06:56:51.228Z,101525.84
2023-05-21T06:59:23.169Z,101517.09
2023-05-21T07:01:55.230Z,101512.72
2023-05-21T07:04:27.366Z,101512.81
2023-05-21T07:06:59.350Z,101508.50
2023-05-21T07:09:31.591Z,101512.19
2023-05-21T07:12:03.762Z,101513.31
2023-05-21T07:14:35.800Z,101492.91
2023-05-21T07:17:07.871Z,101504.66
2023-05-21T07:19:39.854Z,101507.53
2023-05-21T07:22:12.698Z,101508.56
2023-05-21T07:24:44.773Z,101497.97
2023-05-21T07:27:25.376Z,101500.69
2023-05-21T07:29:57.952Z,101506.06
2023-05-21T07:32:30.023Z,101499.97
2023-05-21T07:35:02.146Z,101484.91
2023-05-21T07:37:34.350Z,101491.31
2023-05-21T07:40:08.313Z,101497.63
2023-05-21T07:42:40.960Z,101469.97
2023-05-21T07:45:12.914Z,101490.66
2023-05-21T07:47:46.807Z,101492.44
2023-05-21T07:50:19.126Z,101490.72
2023-05-21T07:52:51.276Z,101489.03
2023-05-21T07:55:23.502Z,101491.75
2023-05-21T07:57:56.379Z,101494.41
2023-05-21T08:00:28.392Z,101487.34
2023-05-21T08:03:01.083Z,101494.59
2023-05-21T08:05:33.112Z,101488.44
2023-05-21T08:08:05.744Z,101477.00
2023-05-21T08:10:37.946Z,101484.22
2023-05-21T08:13:15.002Z,101484.22
2023-05-21T08:15:49.066Z,101470.81
2023-05-21T08:18:24.057Z,101488.69
2023-05-21T08:20:56.777Z,101487.81
2023-05-21T08:23:28.732Z,101475.38
2023-05-21T08:26:00.742Z,101477.22
2023-05-21T08:28:32.903Z,101468.28
2023-05-21T08:31:05.195Z,101466.50
2023-05-21T08:33:38.455Z,101466.50
2023-05-21T08:36:10.567Z,101466.53
2023-05-21T08:38:42.499Z,101467.50
2023-05-21T08:41:17.613Z,101463.06
2023-05-21T08:43:57.695Z,101457.72
2023-05-21T08:46:36.263Z,101454.16
2023-05-21T08:49:14.075Z,101458.63
2023-05-21T08:51:48.227Z,101463.09
2023-05-21T08:54:20.361Z,101456.81
2023-05-21T08:56:53.603Z,101457.69
2023-05-21T08:59:27.196Z,101457.72
2023-05-21T09:01:59.994Z,101458.59
2023-05-21T09:04:33.944Z,101454.09
2023-05-21T09:07:08.076Z,101452.31
2023-05-21T09:09:55.149Z,101453.16
2023-05-21T09:12:28.558Z,101438.81
2023-05-21T09:15:02.213Z,101436.06
2023-05-21T09:17:34.318Z,101443.13
2023-05-21T09:20:15.284Z,101451.25
2023-05-21T09:22:50.522Z,101453.03
2023-05-21T09:25:25.429Z,101448.56
2023-05-21T09:27:58.278Z,101444.97
2023-05-21T09:30:32.495Z,101462.91
2023-05-21T09:33:06.144Z,101451.28
2023-05-21T09:35:44.924Z,101453.09
2023-05-21T09:38:17.402Z,101439.69
2023-05-21T09:40:49.508Z,101448.56
2023-05-21T09:43:22.055Z,101447.66
2023-05-21T09:45:57.775Z,101438.63
2023-05-21T09:48:42.112Z,101439.53
2023-05-21T09:51:16.067Z,101442.13
2023-05-21T09:54:01.184Z,101439.50
2023-05-21T09:56:34.641Z,101435.06
2023-05-21T09:59:07.502Z,101422.53
2023-05-21T10:01:39.905Z,101434.13
2023-05-21T10:04:12.978Z,101437.75
2023-05-21T10:06:47.914Z,101426.06
2023-05-21T10:09:21.439Z,101425.88
2023-05-21T10:11:55.011Z,101414.13
2023-05-21T10:14:32.039Z,101410.34
2023-05-21T10:17:06.796Z,101405.56
2023-05-21T10:19:41.263Z,101407.38
2023-05-21T10:22:14.194Z,101409.13
2023-05-21T10:24:46.745Z,101410.97
2023-05-21T10:27:19.824Z,101399.19
2023-05-21T10:29:56.537Z,101396.22
2023-05-21T10:32:28.932Z,101394.28
2023-05-21T10:35:04.731Z,101395.91
2023-05-21T10:37:37.608Z,101389.47
2023-05-21T10:40:10.303Z,101379.56
2023-05-21T10:43:35.941Z,101382.41
2023-05-21T10:46:26.220Z,101375.34
2023-05-21T10:49:38.766Z,101371.75
2023-05-21T10:52:44.564Z,101376.03
2023-05-21T10:55:53.382Z,101369.50
2023-05-21T10:59:00.922Z,101366.06
2023-05-21T11:01:37.637Z,101372.22
2023-05-21T11:04:11.014Z,101364.88
2023-05-21T11:06:51.135Z,101362.94
2023-05-21T11:09:23.479Z,101347.34
2023-05-21T11:12:00.140Z,101350.53
2023-05-21T11:14:56.264Z,101345.94
2023-05-21T11:17:40.189Z,101339.78
2023-05-21T11:20:16.862Z,101346.88
2023-05-21T11:22:49.884Z,101336.03
2023-05-21T11:25:21.990Z,101332.34
2023-05-21T11:27:54.229Z,101333.97
2023-05-21T11:30:26.168Z,101332.25
2023-05-21T11:33:18.512Z,101328.78
2023-05-21T11:35:50.384Z,101326.09
2023-05-21T11:38:22.332Z,101325.25
2023-05-21T11:40:55.590Z,101296.94
2023-05-21T11:43:27.717Z,101328.84
2023-05-21T11:46:00.044Z,101328.78
2023-05-21T11:48:33.014Z,101326.94
2023-05-21T11:51:06.138Z,101318.72
2023-05-21T11:53:44.339Z,101327.44
2023-05-21T11:56:18.426Z,101320.31
2023-05-21T11:58:50.798Z,101323.00
2023-05-21T12:01:26.568Z,101317.38
2023-05-21T12:03:58.582Z,101294.00
2023-05-21T12:06:31.586Z,101299.94
2023-05-21T12:09:04.711Z,101296.25
2023-05-21T12:11:41.967Z,101303.31
2023-05-21T12:14:14.776Z,101293.50
2023-05-21T12:16:46.857Z,101300.91
2023-05-21T12:19:19.332Z,101298.53
2023-05-21T12:21:51.488Z,101302.97
2023-05-21T12:24:23.625Z,101296.63
2023-05-21T12:26:59.350Z,101284.78
2023-05-21T12:29:32.651Z,101281.72
2023-05-21T12:32:08.928Z,101288.53
2023-05-21T12:34:51.461Z,101287.56
2023-05-21T12:37:32.538Z,101283.38
2023-05-21T12:40:07.887Z,101290.41
2023-05-21T12:42:40.248Z,101286.97
2023-05-21T12:45:12.932Z,101292.88
2023-05-21T12:47:50.448Z,101299.50
2023-05-21T12:50:22.803Z,101281.97
2023-05-21T12:52:58.706Z,101301.56
2023-05-21T12:55:31.778Z,101302.19
2023-05-21T12:58:08.320Z,101307.28
2023-05-21T13:00:43.720Z,101306.41
2023-05-21T13:03:16.548Z,101309.75
2023-05-21T13:05:48.582Z,101307.66
2023-05-21T13:08:20.735Z,101315.13
2023-05-21T13:10:52.767Z,101306.56
2023-05-21T13:13:24.762Z,101309.00
2023-05-21T13:15:57.226Z,101312.53
2023-05-21T13:18:29.239Z,101308.91
2023-05-21T13:21:01.230Z,101311.50
2023-05-21T13:23:33.192Z,101307.34
2023-05-21T13:26:05.241Z,101316.69
2023-05-21T13:28:37.194Z,101301.31
2023-05-21T13:31:09.890Z,101300.84
2023-05-21T13:33:41.969Z,101302.34
2023-05-21T13:36:14.124Z,101298.34
2023-05-21T13:38:46.096Z,101301.03
2023-05-21T13:41:18.114Z,101278.78
2023-05-21T13:43:50.121Z,101301.28
2023-05-21T13:46:22.157Z,101297.50
2023-05-21T13:48:54.254Z,101287.75
2023-05-21T13:54:03.836Z,101287.78
2023-05-21T13:56:35.880Z,101280.72
2023-05-21T13:59:07.854Z,101285.09
2023-05-21T14:01:39.842Z,101280.19
2023-05-21T14:04:12.458Z,101280.50
2023-05-21T14:06:44.984Z,101273.16
2023-05-21T14:09:17.010Z,101274.63
2023-05-21T14:11:49.227Z,101266.94
2023-05-21T14:14:21.655Z,101259.69
2023-05-21T14:16:53.783Z,101267.63
2023-05-21T14:19:26.226Z,101265.56
2023-05-21T14:21:59.931Z,101255.34
2023-05-21T14:24:31.933Z,101254.03
2023-05-21T14:27:04.210Z,101259.63
2023-05-21T14:29:36.238Z,101257.28
2023-05-21T14:32:08.729Z,101256.53
2023-05-21T14:34:41.325Z,101248.31
2023-05-21T14:37:13.309Z,101237.03
2023-05-21T14:39:45.428Z,101235.75
2023-05-21T14:42:17.604Z,101238.31
2023-05-21T14:44:49.655Z,101249.47
2023-05-21T14:47:21.774Z,101243.72
2023-05-21T14:49:53.857Z,101245.47
2023-05-21T14:52:25.852Z,101241.63
2023-05-21T14:54:57.849Z,101236.91
2023-05-21T14:57:29.814Z,101230.44
2023-05-21T15:00:01.915Z,101223.00
2023-05-21T15:02:34.053Z,101223.31
2023-05-21T15:05:06.832Z,101222.84
2023-05-21T15:07:39.050Z,101222.63
2023-05-21T15:10:11.450Z,101215.91
2023-05-21T15:12:43.513Z,101218.72
2023-05-21T15:15:17.107Z,101206.56
2023-05-21T15:17:50.736Z,101218.19
2023-05-21T15:20:23.320Z,101218.94
2023-05-21T15:23:05.055Z,101216.28
2023-05-21T15:25:47.449Z,101218.91
2023-05-21T15:28:20.255Z,101220.69
2023-05-21T15:30:52.347Z,101215.44
2023-05-21T15:33:24.693Z,101212.03
2023-05-21T15:35:56.767Z,101211.63
2023-05-21T15:38:28.796Z,101213.59
2023-05-21T15:41:01.400Z,101216.28
2023-05-21T15:43:33.431Z,101215.47
2023-05-21T15:46:05.511Z,101219.34
2023-05-21T15:48:37.976Z,101213.97
2023-05-21T15:51:09.953Z,101216.69
2023-05-21T15:53:41.950Z,101214.94
2023-05-21T15:56:14.034Z,101221.97
2023-05-21T15:58:46.065Z,101224.50
2023-05-21T16:01:18.595Z,101226.94
2023-05-21T16:03:50.618Z,101221.53
2023-05-21T16:06:23.043Z,101231.44
2023-05-21T16:08:55.159Z,101228.88
2023-05-21T16:11:27.678Z,101226.13
2023-05-21T16:13:59.635Z,101227.09
2023-05-21T16:16:31.642Z,101216.66
2023-05-21T16:19:03.754Z,101213.16
2023-05-21T16:21:35.806Z,101222.91
2023-05-21T16:24:07.854Z,101226.50
2023-05-21T16:26:39.871Z,101230.34
2023-05-21T16:29:11.990Z,101227.72
2023-05-21T16:31:44.168Z,101225.94
2023-05-21T16:34:16.388Z,101221.53
2023-05-21T16:36:48.343Z,101228.63
2023-05-21T16:39:20.437Z,101211.69
2023-05-21T16:41:54.010Z,101221.88
2023-05-21T16:44:28.897Z,101223.88
2023-05-21T16:47:02.029Z,101229.25
2023-05-21T16:49:34.093Z,101225.66
2023-05-21T16:52:06.554Z,101224.84
2023-05-21T16:54:38.641Z,101239.38
2023-05-21T16:57:10.616Z,101229.81
2023-05-21T16:59:44.625Z,101228.25
2023-05-21T17:02:16.887Z,101224.75
2023-05-21T17:04:48.968Z,101224.75
2023-05-21T17:07:20.984Z,101225.75
2023-05-21T17:09:53.016Z,101230.25
2023-05-21T17:12:25.054Z,101225.84
2023-05-21T17:14:57.259Z,101232.13
2023-05-21T17:17:29.295Z,101205.59
2023-05-21T17:20:02.461Z,101232.41
2023-05-21T17:22:34.472Z,101227.03
2023-05-21T17:25:07.500Z,101233.38
2023-05-21T17:27:39.645Z,101226.34
2023-05-21T17:30:12.334Z,101234.28
2023-05-21T17:32:44.413Z,101231.59
2023-05-21T17:35:16.506Z,101230.84
2023-05-21T17:37:48.516Z,101229.19
2023-05-21T17:40:23.116Z,101220.34
2023-05-21T17:42:56.053Z,101225.56
2023-05-21T17:45:28.074Z,101230.91
2023-05-21T17:48:00.692Z,101219.38
2023-05-21T17:50:34.261Z,101233.75
2023-05-21T17:53:06.520Z,101210.69
2023-05-21T17:55:38.823Z,101227.59
2023-05-21T17:58:10.988Z,101239.28
2023-05-21T18:00:43.030Z,101233.94
2023-05-21T18:03:15.133Z,101237.53
2023-05-21T18:05:47.184Z,101234.13
2023-05-21T18:08:19.266Z,101237.75
2023-05-21T18:10:51.259Z,101239.53
2023-05-21T18:13:23.347Z,101233.28
2023-05-21T18:15:58.293Z,101244.09
2023-05-21T18:18:30.296Z,101247.72
2023-05-21T18:21:02.286Z,101250.47
2023-05-21T18:23:34.325Z,101247.84
2023-05-21T18:26:06.418Z,101246.13
2023-05-21T18:28:38.372Z,101244.34
2023-05-21T18:31:10.398Z,101249.81
2023-05-21T18:33:42.357Z,101248.03
2023-05-21T18:36:14.334Z,101253.56
2023-05-21T18:38:46.505Z,101254.50
2023-05-21T18:41:19.861Z,101235.84
2023-05-21T18:43:51.853Z,101245.66
2023-05-21T18:46:23.879Z,101248.34
2023-05-21T18:48:56.432Z,101252.03
2023-05-21T18:51:28.576Z,101247.50
2023-05-21T18:54:00.594Z,101249.34
2023-05-21T18:56:32.599Z,101247.56
2023-05-21T18:59:04.698Z,101247.63
2023-05-21T19:01:36.804Z,101247.75
2023-05-21T19:04:09.384Z,101251.44
2023-05-21T19:06:41.429Z,101253.31
2023-05-21T19:09:13.443Z,101252.53
2023-05-21T19:11:45.532Z,101245.56
2023-05-21T19:14:17.625Z,101248.31
2023-05-21T19:16:49.572Z,101246.63
2023-05-21T19:19:21.774Z,101240.59
2023-05-21T19:21:54.038Z,101257.56
2023-05-21T19:24:26.211Z,101254.94
2023-05-21T19:27:00.134Z,101260.34
2023-05-21T19:29:32.263Z,101265.81
2023-05-21T19:32:04.545Z,101264.94
2023-05-21T19:34:36.699Z,101273.09
2023-05-21T19:37:08.904Z,101275.00
2023-05-21T19:39:43.528Z,101282.22
2023-05-21T19:42:17.294Z,101279.56
2023-05-21T19:44:49.274Z,101276.06
2023-05-21T19:47:21.305Z,101279.72
2023-05-21T19:49:53.317Z,101283.38
2023-05-21T19:52:25.433Z,101276.97
2023-05-21T19:55:04.424Z,101283.47
2023-05-21T19:57:37.299Z,101279.97
2023-05-21T20:00:10.414Z,101285.38
2023-05-21T20:02:42.510Z,101285.38
2023-05-21T20:05:14.616Z,101280.97
2023-05-21T20:07:46.751Z,101278.31
2023-05-21T20:10:18.837Z,101265.84
2023-05-21T20:12:50.844Z,101271.25
2023-05-21T20:15:22.826Z,101283.78
2023-05-21T20:17:55.961Z,101280.25
2023-05-21T20:20:28.018Z,101285.66
2023-05-21T20:23:03.253Z,101285.72
2023-05-21T20:25:35.241Z,101289.31
2023-05-21T20:28:08.607Z,101284.88
2023-05-21T20:30:58.942Z,101284.06
2023-05-21T20:33:33.242Z,101287.66
2023-05-21T20:36:05.573Z,101294.81
2023-05-21T20:38:38.237Z,101293.91
2023-05-21T20:41:10.437Z,101294.81
2023-05-21T20:43:45.287Z,101296.66
2023-05-21T20:46:17.557Z,101292.25
2023-05-21T20:48:49.755Z,101286.91
2023-05-21T20:51:21.812Z,101292.28
2023-05-21T20:53:53.939Z,101293.19
2023-05-21T20:56:40.659Z,101290.53
2023-05-21T20:59:13.840Z,101288.78
2023-05-21T21:01:46.021Z,101289.69
2023-05-21T21:04:19.110Z,101263.94
2023-05-21T21:06:51.980Z,101290.69
2023-05-21T21:09:23.940Z,101291.59
2023-05-21T21:11:56.320Z,101296.16
2023-05-21T21:14:29.868Z,101295.25
2023-05-21T21:17:02.888Z,101289.03
2023-05-21T21:19:35.484Z,101293.47
2023-05-21T21:22:07.566Z,101283.69
2023-05-21T21:24:39.652Z,101275.72
2023-05-21T21:27:11.598Z,101305.13
2023-05-21T21:29:44.228Z,101311.38
2023-05-21T21:32:16.371Z,101300.69
2023-05-21T21:34:48.829Z,101298.00
2023-05-21T21:37:20.883Z,101310.50
2023-05-21T21:39:53.354Z,101306.91
2023-05-21T21:42:25.518Z,101306.06
2023-05-21T21:44:57.557Z,101294.47
2023-05-21T21:47:29.702Z,101291.84
2023-05-21T21:50:01.749Z,101293.63
2023-05-21T21:52:33.728Z,101298.97
2023-05-21T21:55:10.484Z,101301.63
2023-05-21T21:57:42.419Z,101288.28
2023-05-21T22:00:17.556Z,101283.81
2023-05-21T22:02:49.614Z,101292.72
2023-05-21T22:05:21.670Z,101300.75
2023-05-21T22:07:53.707Z,101299.88
2023-05-21T22:10:25.911Z,101285.63
2023-05-21T22:12:57.887Z,101288.25
2023-05-21T22:15:32.156Z,101304.34
2023-05-21T22:18:04.614Z,101299.00
2023-05-21T22:20:38.299Z,101297.22
2023-05-21T22:23:10.479Z,101295.44
2023-05-21T22:25:42.498Z,101279.38
2023-05-21T22:28:14.502Z,101300.78
2023-05-21T22:30:46.506Z,101293.63
2023-05-21T22:33:18.699Z,101300.75
2023-05-21T22:35:51.044Z,101291.84
2023-05-21T22:38:23.023Z,101294.53
2023-05-21T22:40:55.245Z,101288.28
2023-05-21T22:43:27.467Z,101299.88
2023-05-21T22:45:59.654Z,101295.44
2023-05-21T22:48:31.714Z,101287.41
2023-05-21T22:51:04.729Z,101290.94
2023-05-21T22:53:36.732Z,101285.63
2023-05-21T22:56:08.895Z,101291.84
2023-05-21T22:58:41.191Z,101288.28
2023-05-21T23:01:13.278Z,101298.06
2023-05-21T23:03:45.266Z,101294.53
2023-05-21T23:06:17.301Z,101298.09
2023-05-21T23:08:49.241Z,101297.19
2023-05-21T23:11:21.358Z,101268.69
2023-05-21T23:13:53.419Z,101306.09
2023-05-21T23:16:25.554Z,101285.59
2023-05-21T23:18:57.960Z,101279.34
2023-05-21T23:21:30.098Z,101293.63
2023-05-21T23:24:02.092Z,101288.25
2023-05-21T23:26:34.888Z,101284.72
2023-05-21T23:29:06.848Z,101274.88
2023-05-21T23:31:39.084Z,101279.31
2023-05-21T23:34:11.050Z,101282.84
2023-05-21T23:36:43.156Z,101281.03
2023-05-21T23:39:15.093Z,101279.25
2023-05-21T23:41:47.325Z,101279.22
2023-05-21T23:44:20.341Z,101284.56
2023-05-21T23:46:52.374Z,101281.91
2023-05-21T23:49:24.326Z,101261.38
2023-05-21T23:51:56.679Z,101285.41
2023-05-21T23:54:28.630Z,101280.06
2023-05-21T23:57:00.934Z,101266.72
2023-05-21T23:59:32.977Z,101271.16
